Christi C — WDH7980 — position and weather

sailwx.info

Track history (hours):
 
Tides and Currents Weather Stations Pressure Air Temp Water Temp Dewpoint Dewpoint Depression Visibility Wind Speed Wind Dir Waves Ship Positions

Christi C

Owner: Diversified Marine Services, LLC, Chauvin, LA. More information available from US FCC via Universal Licensing System and Coast Guard Vessel Documentation Center.

Last reported at 2018-Jan-12 01:11 UTC. Time now 2018-Feb-20 04:20 UTC.
Position N 29°33' W 090°25'.
Warning: this ship's position is 39 days out of date.

Length 30 m.

Type: Towing. MMSI: 367653490.

Date/timePositionNaut miles runAvg speedWind from/ knotsBaromVisibWave heightAir tempDewpointWater temp
2018-Jan-12 01:11N 29°33' W 090°25'1 7.0
2018-Jan-12 01:00N 29°33' W 090°26'3 7.1
2018-Jan-12 00:30N 29°34' W 090°30'4 6.9
2018-Jan-11 23:59N 29°34' W 090°34'3 5.6
2018-Jan-11 23:30N 29°35' W 090°37'3 6.9
2018-Jan-11 23:01N 29°36' W 090°41'2 4.6
2018-Jan-11 22:31N 29°35' W 090°43'3 5.6
2018-Jan-11 22:01N 29°33' W 090°45'4 6.6
2018-Jan-11 21:28N 29°32' W 090°49'4 7.0
2018-Jan-11 20:57N 29°33' W 090°53'3 7.0
2018-Jan-11 20:28N 29°34' W 090°57'  
Track history (hours):
 
Tides and Currents Weather Stations Pressure Air Temp Water Temp Dewpoint Dewpoint Depression Visibility Wind Speed Wind Dir Waves Ship Positions

Christi C

Owner: Diversified Marine Services, LLC, Chauvin, LA. More information available from US FCC via Universal Licensing System and Coast Guard Vessel Documentation Center.

Last reported at 2018-Jan-12 01:11 UTC. Time now 2018-Feb-20 04:20 UTC.
Position N 29°33' W 090°25'.
Warning: this ship's position is 39 days out of date.

Length 30 m.

Type: Towing. MMSI: 367653490.

Date/timePositionNaut miles runAvg speedWind from/ knotsBaromVisibWave heightAir tempDewpointWater temp
2018-Jan-12 01:11N 29°33' W 090°25'1 7.0
2018-Jan-12 01:00N 29°33' W 090°26'3 7.1
2018-Jan-12 00:30N 29°34' W 090°30'4 6.9
2018-Jan-11 23:59N 29°34' W 090°34'3 5.6
2018-Jan-11 23:30N 29°35' W 090°37'3 6.9
2018-Jan-11 23:01N 29°36' W 090°41'2 4.6
2018-Jan-11 22:31N 29°35' W 090°43'3 5.6
2018-Jan-11 22:01N 29°33' W 090°45'4 6.6
2018-Jan-11 21:28N 29°32' W 090°49'4 7.0
2018-Jan-11 20:57N 29°33' W 090°53'3 7.0
2018-Jan-11 20:28N 29°34' W 090°57'  

Dump ship's entire track history